Time;durP1;ratioP1;P1;durP2;ratioP2;P2;SDS_P1;SDS_P2;PMS_P1;PMS_P2;Temp;Humidity;BMP_temperature;BMP_pressure;BME280_temperature;BME280_humidity;BME280_pressure;Samples;Min_cycle;Max_cycle;Signal;HPM_P1;HPM_P2
2022/03/04 00:00:57;;;;;;;11.52;8.43;;;;;;;5.21;54.74;99999.81;5030631;28;20036;-87
2022/03/04 00:03:22;;;;;;;13.05;7.93;;;;;;;5.16;54.67;99997.44;5029727;28;20611;-90
2022/03/04 00:05:47;;;;;;;12.13;8.35;;;;;;;5.16;54.87;99991.28;5030242;28;20035;-89
2022/03/04 00:08:13;;;;;;;13.05;9.00;;;;;;;5.14;54.25;99991.41;5030065;28;20036;-89
2022/03/04 00:10:38;;;;;;;11.70;7.93;;;;;;;5.14;54.82;99988.75;5030008;28;20367;-88
2022/03/04 00:13:04;;;;;;;11.20;7.80;;;;;;;5.11;53.75;99991.59;5033850;28;20036;-90
2022/03/04 00:15:29;;;;;;;11.20;8.38;;;;;;;5.10;55.02;99994.34;5034148;28;20127;-90
2022/03/04 00:17:55;;;;;;;14.18;8.20;;;;;;;5.08;55.34;99999.75;5050506;28;20028;-90
2022/03/04 00:20:20;;;;;;;12.13;8.07;;;;;;;5.05;55.45;99990.22;5033498;28;20036;-89
2022/03/04 00:22:46;;;;;;;12.32;8.32;;;;;;;5.07;55.75;99992.75;5050050;28;20032;-90
2022/03/04 00:25:12;;;;;;;11.38;7.95;;;;;;;5.01;56.22;99995.81;5034550;28;20451;-89
2022/03/04 00:27:38;;;;;;;11.02;8.05;;;;;;;4.98;55.56;99991.56;5025950;28;20029;-90
2022/03/04 00:30:04;;;;;;;10.93;8.43;;;;;;;4.98;56.37;99993.38;5034613;28;20406;-90
2022/03/04 00:32:31;;;;;;;12.43;8.50;;;;;;;4.97;56.80;100003.13;5032708;28;20028;-89
2022/03/04 00:34:56;;;;;;;10.93;8.07;;;;;;;4.95;56.13;99998.88;5042376;28;20032;-90
2022/03/04 00:37:22;;;;;;;11.18;7.80;;;;;;;4.94;55.69;100003.34;5032578;28;20024;-89
2022/03/04 00:39:47;;;;;;;11.52;7.95;;;;;;;4.98;57.25;100002.19;5034295;28;20677;-87
2022/03/04 00:42:13;;;;;;;12.73;8.27;;;;;;;4.97;57.35;100000.47;5033896;28;20512;-90
2022/03/04 00:44:38;;;;;;;11.40;8.15;;;;;;;4.97;58.19;99996.97;5034031;28;20405;-90
2022/03/04 00:47:06;;;;;;;11.63;7.90;;;;;;;4.94;57.93;100002.47;5033475;28;20050;-89
2022/03/04 00:49:34;;;;;;;11.88;8.32;;;;;;;4.91;57.63;99998.22;5025495;28;20043;-89
2022/03/04 00:51:59;;;;;;;10.68;7.82;;;;;;;4.90;58.73;99998.34;5032775;28;20040;-90
2022/03/04 00:54:24;;;;;;;10.55;8.02;;;;;;;4.89;59.25;100005.44;5033762;28;20455;-88
2022/03/04 00:56:50;;;;;;;11.18;8.18;;;;;;;4.87;58.77;100004.69;5032504;28;20037;-91
2022/03/04 00:59:15;;;;;;;11.23;8.38;;;;;;;4.85;59.16;100011.03;5034074;28;20440;-89
2022/03/04 01:01:41;;;;;;;13.07;8.55;;;;;;;4.83;58.95;100013.78;5032668;28;20107;-90
2022/03/04 01:04:06;;;;;;;11.30;7.90;;;;;;;4.81;58.95;100017.50;5033877;28;20032;-89
2022/03/04 01:06:32;;;;;;;11.68;8.20;;;;;;;4.73;59.29;100020.63;5048475;28;20024;-90
2022/03/04 01:08:57;;;;;;;12.88;8.68;;;;;;;4.76;58.75;100024.88;5033893;28;20385;-90
2022/03/04 01:11:23;;;;;;;10.27;7.53;;;;;;;4.71;58.46;100023.34;5033066;28;20043;-90
2022/03/04 01:13:59;;;;;;;12.25;8.55;;;;;;;4.70;58.50;100016.34;5033024;28;20028;-90
2022/03/04 01:16:25;;;;;;;10.27;7.43;;;;;;;4.67;58.64;100013.91;5024637;28;20029;-89
2022/03/04 01:18:50;;;;;;;10.48;7.68;;;;;;;4.66;58.67;100014.00;5032856;28;21157;-88
2022/03/04 01:21:16;;;;;;;11.95;8.00;;;;;;;4.64;58.35;100024.69;5033117;28;20035;-89
2022/03/04 01:23:41;;;;;;;12.15;7.97;;;;;;;4.61;58.78;100018.75;5049151;28;20029;-89
2022/03/04 01:26:07;;;;;;;11.68;8.20;;;;;;;4.58;58.34;100011.84;5032947;28;20037;-88
2022/03/04 01:28:32;;;;;;;11.65;8.25;;;;;;;4.55;58.79;100008.56;5032664;28;20112;-89
2022/03/04 01:30:58;;;;;;;12.00;8.35;;;;;;;4.53;58.70;100013.97;5032488;28;20111;-88
2022/03/04 01:33:23;;;;;;;10.48;7.68;;;;;;;4.49;58.49;100009.81;5032576;28;20064;-90
2022/03/04 01:35:48;;;;;;;11.00;8.20;;;;;;;4.50;58.71;100010.66;5049356;28;20063;-89
2022/03/04 01:38:14;;;;;;;12.95;7.75;;;;;;;4.48;59.37;100007.25;5033395;28;20062;-90
2022/03/04 01:40:39;;;;;;;11.07;7.57;;;;;;;4.47;58.89;100003.75;5032369;28;20135;-89
2022/03/04 01:43:04;;;;;;;11.82;8.52;;;;;;;4.45;58.73;100005.66;5032766;28;20060;-90
2022/03/04 01:45:30;;;;;;;12.25;8.13;;;;;;;4.43;58.75;99999.63;5049124;28;20040;-90
2022/03/04 01:47:55;;;;;;;9.73;7.85;;;;;;;4.42;59.01;100000.56;5031506;28;20474;-90
2022/03/04 01:50:24;;;;;;;11.75;8.35;;;;;;;4.35;59.06;100001.91;5033089;28;20043;-89
2022/03/04 01:52:49;;;;;;;12.77;8.40;;;;;;;4.37;59.17;100005.28;5031131;28;20032;-90
2022/03/04 01:55:15;;;;;;;11.93;8.25;;;;;;;4.36;58.58;99998.31;5032214;28;20082;-90
2022/03/04 01:57:40;;;;;;;11.38;8.10;;;;;;;4.32;58.98;100002.09;5032375;28;20109;-89
2022/03/04 02:00:12;;;;;;;12.02;8.13;;;;;;;4.34;58.34;100001.06;5032902;28;20379;-89
2022/03/04 02:02:37;;;;;;;11.32;8.10;;;;;;;4.40;58.38;100002.44;5025101;28;20508;-90
2022/03/04 02:05:03;;;;;;;14.38;8.30;;;;;;;4.40;57.83;99995.38;5032229;28;20037;-89
2022/03/04 02:07:29;;;;;;;11.73;8.55;;;;;;;4.43;57.71;100004.91;5032126;28;20066;-90
2022/03/04 02:09:54;;;;;;;11.60;8.25;;;;;;;4.40;57.92;99992.72;5032569;28;20046;-89
2022/03/04 02:12:19;;;;;;;10.82;7.85;;;;;;;4.33;58.10;100001.16;5032433;28;20504;-90
2022/03/04 02:14:45;;;;;;;12.27;7.75;;;;;;;4.27;57.96;99993.59;5032604;28;20071;-90
2022/03/04 02:17:10;;;;;;;12.18;8.40;;;;;;;4.27;58.69;99999.75;5031652;28;20028;-90
2022/03/04 02:19:35;;;;;;;12.48;8.48;;;;;;;4.20;58.77;99995.75;5032065;28;20047;-90
2022/03/04 02:22:03;;;;;;;11.88;8.23;;;;;;;4.19;58.95;100001.16;5031857;28;20031;-90
2022/03/04 02:24:30;;;;;;;10.20;8.00;;;;;;;4.16;58.87;99996.03;5047994;28;20573;-90
2022/03/04 02:26:58;;;;;;;10.52;7.75;;;;;;;4.10;58.54;99998.13;5048426;28;20086;-90
2022/03/04 02:29:24;;;;;;;10.20;7.60;;;;;;;4.09;57.90;100004.38;5032429;28;20521;-90
2022/03/04 02:31:50;;;;;;;11.68;7.60;;;;;;;4.08;57.86;100000.03;5030579;28;20375;-90
2022/03/04 02:34:15;;;;;;;11.70;7.68;;;;;;;4.09;57.93;99991.13;5031606;28;20081;-89
2022/03/04 02:36:41;;;;;;;11.18;7.43;;;;;;;4.09;58.17;99996.44;5030908;28;20028;-90
2022/03/04 02:39:07;;;;;;;11.35;8.05;;;;;;;4.06;57.99;99990.47;5032394;28;20325;-90
2022/03/04 02:41:36;;;;;;;11.20;7.88;;;;;;;4.07;58.44;99995.69;5046819;28;20077;-90
2022/03/04 02:44:03;;;;;;;10.18;7.57;;;;;;;4.06;58.68;99987.84;5031803;28;20060;-91
2022/03/04 02:46:28;;;;;;;11.43;7.57;;;;;;;4.01;58.89;99996.06;5041175;28;20139;-90
2022/03/04 02:48:54;;;;;;;10.85;7.82;;;;;;;3.99;59.12;99987.38;5030922;28;20115;-88
2022/03/04 02:51:19;;;;;;;12.85;8.63;;;;;;;3.99;59.19;99983.88;5031155;28;20036;-90
2022/03/04 02:53:44;;;;;;;11.32;7.70;;;;;;;3.95;59.89;99992.94;5030221;28;20024;-89
2022/03/04 02:56:10;;;;;;;12.23;8.60;;;;;;;3.92;60.45;99986.06;5047652;28;20078;-90
2022/03/04 02:58:35;;;;;;;11.77;8.07;;;;;;;3.87;60.68;99985.50;5027730;28;20414;-88
2022/03/04 03:01:00;;;;;;;12.27;8.10;;;;;;;3.79;60.07;99985.97;5027058;28;20033;-90
2022/03/04 03:03:31;;;;;;;13.68;8.43;;;;;;;3.84;60.23;99993.63;5011632;28;20204;-89
2022/03/04 03:05:57;;;;;;;10.73;7.78;;;;;;;3.91;60.42;99992.28;5027401;28;20037;-90
2022/03/04 03:08:22;;;;;;;13.20;8.52;;;;;;;3.89;60.50;99993.34;5020796;28;20048;-89
2022/03/04 03:10:47;;;;;;;12.15;7.85;;;;;;;3.88;60.54;99986.34;5010643;28;20032;-90
2022/03/04 03:13:13;;;;;;;11.32;8.32;;;;;;;3.84;60.11;99998.06;5027137;28;20072;-90
2022/03/04 03:15:38;;;;;;;12.75;7.80;;;;;;;3.84;59.96;99993.63;5011374;28;20086;-89
2022/03/04 03:18:03;;;;;;;10.82;7.78;;;;;;;3.84;59.81;99992.78;5013996;28;20044;-89
2022/03/04 03:20:29;;;;;;;11.90;8.35;;;;;;;3.84;60.08;99992.78;5011537;28;20025;-88
2022/03/04 03:22:54;;;;;;;13.40;8.57;;;;;;;3.84;60.08;99995.41;5027681;28;20079;-89
2022/03/04 03:25:20;;;;;;;11.60;8.00;;;;;;;3.79;59.90;99991.25;5011283;28;20072;-90
2022/03/04 03:27:45;;;;;;;10.90;7.55;;;;;;;3.79;59.48;99999.19;5008966;28;20033;-90
2022/03/04 03:30:11;;;;;;;10.95;7.78;;;;;;;3.81;58.95;99996.47;5011609;28;20157;-89
2022/03/04 03:32:37;;;;;;;11.05;7.38;;;;;;;3.81;58.92;100000.91;5027206;28;20071;-89
2022/03/04 03:35:03;;;;;;;11.40;8.10;;;;;;;3.81;58.84;100000.91;5027760;28;21013;-89
2022/03/04 03:37:29;;;;;;;11.27;7.65;;;;;;;3.77;59.15;100001.06;5010849;28;20178;-90
2022/03/04 03:39:54;;;;;;;11.27;7.68;;;;;;;3.81;58.75;100003.53;5027345;28;20127;-90
2022/03/04 03:42:19;;;;;;;11.35;7.97;;;;;;;3.74;58.96;99998.59;5010263;28;20175;-90
2022/03/04 03:44:45;;;;;;;12.55;7.63;;;;;;;3.71;59.48;100004.06;5010660;28;20068;-90
2022/03/04 03:47:10;;;;;;;12.43;7.85;;;;;;;3.66;59.54;99998.22;5010521;28;20036;-90
2022/03/04 03:49:37;;;;;;;11.77;8.07;;;;;;;3.70;59.81;99996.25;5011130;28;20047;-89
2022/03/04 03:52:03;;;;;;;10.45;8.00;;;;;;;3.64;59.62;100002.75;5010284;28;20033;-89
2022/03/04 03:54:28;;;;;;;11.50;8.05;;;;;;;3.61;59.41;100000.28;5027307;28;20040;-90
2022/03/04 03:56:53;;;;;;;12.65;7.82;;;;;;;3.63;59.14;100005.50;5012932;28;20823;-90
2022/03/04 03:59:19;;;;;;;11.90;7.93;;;;;;;3.62;59.46;100003.78;5030410;28;20043;-90
2022/03/04 04:01:44;;;;;;;10.25;7.90;;;;;;;3.62;59.22;100011.72;5029995;28;20127;-89
2022/03/04 04:04:12;;;;;;;11.02;8.05;;;;;;;3.65;59.76;100012.38;5031088;28;20115;-89
2022/03/04 04:06:41;;;;;;;10.68;8.00;;;;;;;3.64;59.49;100017.75;5046852;28;20036;-89
2022/03/04 04:09:06;;;;;;;11.77;8.18;;;;;;;3.59;59.89;100011.91;5047184;28;20063;-89
2022/03/04 04:11:35;;;;;;;13.38;8.38;;;;;;;3.57;60.43;100024.38;5029736;28;20036;-90
2022/03/04 04:14:02;;;;;;;11.93;8.15;;;;;;;3.57;60.69;100013.78;5031094;28;20040;-89
2022/03/04 04:16:27;;;;;;;13.63;8.25;;;;;;;3.52;60.65;100022.00;5029559;28;20044;-89
2022/03/04 04:18:52;;;;;;;13.85;8.40;;;;;;;3.48;60.41;100021.34;5047312;28;20024;-90
2022/03/04 04:21:18;;;;;;;12.35;8.77;;;;;;;3.50;60.82;100021.25;5029834;28;20382;-90
2022/03/04 04:23:43;;;;;;;14.38;8.85;;;;;;;3.53;60.08;100026.34;5030499;28;20032;-90
2022/03/04 04:26:08;;;;;;;13.57;9.40;;;;;;;3.54;60.47;100029.84;5030357;28;20471;-89
2022/03/04 04:28:34;;;;;;;10.95;8.07;;;;;;;3.52;60.17;100027.28;5028725;28;20102;-89
2022/03/04 04:30:59;;;;;;;12.40;8.80;;;;;;;3.52;60.38;100022.00;5022406;28;20037;-90
2022/03/04 04:33:24;;;;;;;13.68;9.20;;;;;;;3.53;60.64;100031.63;5030473;28;20038;-90
2022/03/04 04:35:50;;;;;;;14.98;10.50;;;;;;;3.51;60.57;100028.22;5030091;28;20582;-89
2022/03/04 04:38:15;;;;;;;13.40;9.55;;;;;;;3.55;61.06;100020.97;5030069;28;20488;-90
2022/03/04 04:40:40;;;;;;;14.02;8.85;;;;;;;3.48;61.22;100025.78;5029338;28;20036;-89
2022/03/04 04:43:06;;;;;;;16.00;8.25;;;;;;;3.43;61.17;100031.34;5030386;28;20143;-90
2022/03/04 04:45:31;;;;;;;14.90;9.10;;;;;;;3.39;61.39;100026.31;5029925;28;20025;-90
2022/03/04 04:47:56;;;;;;;16.23;8.93;;;;;;;3.30;61.45;100025.03;5030139;28;20020;-90
2022/03/04 04:50:22;;;;;;;15.07;8.70;;;;;;;3.33;61.39;100029.31;5030171;28;20433;-89
2022/03/04 04:52:47;;;;;;;13.15;8.35;;;;;;;3.36;61.57;100029.16;5045819;28;20036;-90
2022/03/04 04:55:13;;;;;;;14.65;8.82;;;;;;;3.29;61.52;100041.00;5030212;28;20040;-90
2022/03/04 04:57:38;;;;;;;13.07;8.13;;;;;;;3.32;61.48;100043.47;5023178;28;20059;-90
2022/03/04 05:00:04;;;;;;;14.30;8.68;;;;;;;3.34;61.46;100038.97;5034047;28;20568;-90
2022/03/04 05:02:29;;;;;;;12.30;8.68;;;;;;;3.39;60.75;100044.81;5032790;28;20720;-90
2022/03/04 05:04:55;;;;;;;14.27;8.77;;;;;;;3.41;60.80;100035.84;5033447;28;20032;-88
2022/03/04 05:07:20;;;;;;;14.10;9.15;;;;;;;3.43;60.69;100041.91;5033421;28;20035;-90
2022/03/04 05:09:45;;;;;;;12.48;8.75;;;;;;;3.46;61.03;100039.09;5033305;28;20032;-89
2022/03/04 05:12:11;;;;;;;12.70;8.65;;;;;;;3.48;60.69;100042.47;5033499;28;20024;-90
2022/03/04 05:14:36;;;;;;;14.77;9.35;;;;;;;3.47;60.20;100038.13;5034136;28;20029;-89
2022/03/04 05:17:01;;;;;;;14.43;8.55;;;;;;;3.44;60.57;100042.75;5032351;28;20056;-90
2022/03/04 05:19:27;;;;;;;14.52;9.25;;;;;;;3.41;60.74;100042.94;5033055;28;20113;-89
2022/03/04 05:21:52;;;;;;;12.93;8.82;;;;;;;3.35;60.36;100038.88;5033083;28;20075;-90
2022/03/04 05:24:17;;;;;;;13.07;8.10;;;;;;;3.32;60.88;100049.63;5033342;28;20043;-89
2022/03/04 05:26:43;;;;;;;12.45;8.68;;;;;;;3.32;60.43;100049.63;5048438;28;20028;-90
2022/03/04 05:29:10;;;;;;;14.88;8.80;;;;;;;3.29;60.94;100043.63;5032829;28;20036;-90
2022/03/04 05:31:37;;;;;;;15.68;8.77;;;;;;;3.26;61.06;100049.09;5032358;28;20063;-89
2022/03/04 05:34:02;;;;;;;12.30;8.90;;;;;;;3.27;60.68;100053.44;5041745;28;20074;-90
2022/03/04 05:36:28;;;;;;;14.10;9.18;;;;;;;3.22;61.08;100044.94;5049454;28;20036;-90
2022/03/04 05:38:53;;;;;;;13.60;9.23;;;;;;;3.22;60.64;100045.78;5032789;28;20029;-90
2022/03/04 05:41:19;;;;;;;14.30;8.93;;;;;;;3.18;60.65;100049.53;5032806;28;20445;-88
2022/03/04 05:43:47;;;;;;;14.60;9.18;;;;;;;3.24;61.12;100054.47;5033106;28;20020;-90
2022/03/04 05:46:13;;;;;;;14.15;8.73;;;;;;;3.21;61.44;100062.56;5049000;28;20097;-89
2022/03/04 05:48:39;;;;;;;16.80;9.38;;;;;;;3.22;61.69;100064.28;5023786;28;20490;-88
2022/03/04 05:51:05;;;;;;;12.50;8.88;;;;;;;3.23;61.61;100059.84;5032994;28;20040;-90
2022/03/04 05:53:31;;;;;;;14.50;8.77;;;;;;;3.19;61.71;100060.97;5032733;28;20032;-89
2022/03/04 05:55:56;;;;;;;14.18;8.68;;;;;;;3.15;62.41;100071.72;5032441;28;20028;-90
2022/03/04 05:58:22;;;;;;;12.73;8.52;;;;;;;3.12;62.06;100076.31;5028840;28;20053;-90
2022/03/04 06:00:47;;;;;;;13.77;9.35;;;;;;;3.16;62.35;100080.50;5029543;28;20040;-90
2022/03/04 06:03:12;;;;;;;16.02;8.90;;;;;;;3.08;62.60;100074.78;5034553;28;20037;-89
2022/03/04 06:05:38;;;;;;;15.18;9.43;;;;;;;3.10;62.99;100079.06;5013339;28;20043;-89
2022/03/04 06:08:04;;;;;;;13.95;9.38;;;;;;;2.89;63.00;100079.44;5011707;28;20072;-90
2022/03/04 06:10:29;;;;;;;13.77;9.23;;;;;;;2.82;63.27;100082.38;5012949;28;20390;-89
2022/03/04 06:12:54;;;;;;;14.20;8.75;;;;;;;2.79;63.34;100082.56;5012688;28;20029;-88
2022/03/04 06:15:20;;;;;;;20.80;9.68;;;;;;;2.72;63.76;100075.91;5027281;28;20037;-90
2022/03/04 06:17:47;;;;;;;13.98;9.10;;;;;;;2.72;63.39;100080.34;5021884;28;20027;-89
2022/03/04 06:20:12;;;;;;;17.17;8.55;;;;;;;2.82;63.45;100081.53;5029533;28;20037;-89
2022/03/04 06:22:38;;;;;;;17.48;9.70;;;;;;;2.88;63.78;100098.84;5043940;28;20029;-90
2022/03/04 06:25:04;;;;;;;14.60;9.75;;;;;;;2.92;63.77;100092.47;5011835;28;20041;-88
2022/03/04 06:27:30;;;;;;;17.17;9.73;;;;;;;2.97;63.41;100095.69;5010891;28;20029;-90
2022/03/04 06:29:55;;;;;;;16.33;10.00;;;;;;;2.99;63.77;100109.66;5011509;28;20414;-89
2022/03/04 06:32:20;;;;;;;15.10;10.02;;;;;;;2.94;63.61;100102.00;5010947;28;20227;-90
2022/03/04 06:34:46;;;;;;;15.52;9.95;;;;;;;2.92;63.57;100108.31;5011367;28;20139;-89
2022/03/04 06:37:12;;;;;;;20.33;11.30;;;;;;;2.90;63.63;100111.03;5011935;28;20033;-90
2022/03/04 06:39:37;;;;;;;19.63;11.07;;;;;;;2.80;64.24;100115.94;5012573;28;20028;-90
2022/03/04 06:42:03;;;;;;;25.20;11.57;;;;;;;2.75;64.04;100114.50;5012179;28;20059;-90
2022/03/04 06:44:29;;;;;;;18.02;10.90;;;;;;;2.75;64.54;100104.78;5028778;28;20041;-89
2022/03/04 06:46:54;;;;;;;16.88;10.15;;;;;;;2.76;64.21;100111.78;5011800;28;20022;-90
2022/03/04 06:49:19;;;;;;;19.38;10.30;;;;;;;2.89;64.31;100111.97;5012370;28;20094;-90
2022/03/04 06:51:45;;;;;;;18.50;10.65;;;;;;;2.91;63.80;100110.09;5011059;28;20031;-91
2022/03/04 06:54:10;;;;;;;17.10;9.52;;;;;;;2.88;63.79;100109.41;5012262;28;20064;-90
2022/03/04 06:56:35;;;;;;;18.80;9.95;;;;;;;2.95;63.84;100113.41;5011426;28;20542;-91
2022/03/04 06:59:00;;;;;;;18.48;10.85;;;;;;;2.96;63.59;100108.03;5023636;28;20441;-91
2022/03/04 07:01:26;;;;;;;15.88;10.27;;;;;;;2.97;64.09;100112.38;5029341;28;20033;-90
2022/03/04 07:03:51;;;;;;;14.85;10.10;;;;;;;2.97;64.00;100111.53;5026080;28;20036;-89
2022/03/04 07:06:18;;;;;;;17.80;10.82;;;;;;;2.97;63.58;100109.75;5029875;28;20435;-89
2022/03/04 07:08:43;;;;;;;18.70;10.70;;;;;;;2.95;63.78;100123.97;5044669;28;20029;-89
2022/03/04 07:11:08;;;;;;;16.05;10.95;;;;;;;3.04;64.35;100126.09;5027332;28;20081;-89
2022/03/04 07:13:34;;;;;;;16.92;10.85;;;;;;;3.05;64.00;100122.53;5045377;28;20020;-89
2022/03/04 07:16:00;;;;;;;17.38;10.75;;;;;;;3.08;64.29;100125.84;5047061;28;20044;-90
2022/03/04 07:18:25;;;;;;;13.95;9.93;;;;;;;3.10;64.23;100134.53;5029765;28;20035;-89
2022/03/04 07:20:50;;;;;;;19.55;11.43;;;;;;;3.14;64.53;100137.84;5029581;28;20025;-90
2022/03/04 07:23:30;;;;;;;16.00;10.52;;;;;;;3.10;64.84;100128.41;5029570;28;20032;-90
2022/03/04 07:25:55;;;;;;;14.48;10.07;;;;;;;3.13;64.94;100137.00;5030469;28;20025;-90
2022/03/04 07:28:21;;;;;;;16.35;10.52;;;;;;;3.19;64.78;100138.44;5029807;28;20082;-88
2022/03/04 07:30:46;;;;;;;19.85;10.68;;;;;;;3.21;64.81;100136.56;5030689;28;20628;-88
2022/03/04 07:33:11;;;;;;;19.00;10.30;;;;;;;3.23;65.15;100141.75;5030361;28;20537;-88
2022/03/04 07:35:44;;;;;;;16.17;10.57;;;;;;;3.20;64.79;100147.22;5028703;28;20028;-89
2022/03/04 07:38:10;;;;;;;14.85;9.57;;;;;;;3.24;65.21;100139.03;5030117;28;20379;-89
2022/03/04 07:40:36;;;;;;;16.33;10.20;;;;;;;3.25;64.61;100146.00;5029511;28;20035;-89
2022/03/04 07:43:01;;;;;;;13.80;9.70;;;;;;;3.26;64.21;100142.44;5031035;28;20081;-89
2022/03/04 07:45:27;;;;;;;14.48;8.95;;;;;;;3.30;64.62;100136.03;5033250;28;20032;-89
2022/03/04 07:47:52;;;;;;;16.02;10.10;;;;;;;3.30;64.17;100133.38;5030376;28;20043;-88
2022/03/04 07:50:17;;;;;;;15.32;9.57;;;;;;;3.34;64.22;100139.38;5034828;28;20048;-88
2022/03/04 07:52:44;;;;;;;18.40;10.23;;;;;;;3.39;63.37;100127.59;5032010;28;20036;-88
2022/03/04 07:55:12;;;;;;;15.00;9.43;;;;;;;3.44;63.21;100135.25;5034952;28;20388;-88
2022/03/04 07:57:37;;;;;;;17.95;9.75;;;;;;;3.45;63.13;100132.53;5049786;28;20111;-92
2022/03/04 08:00:11;;;;;;;15.20;9.73;;;;;;;3.46;63.02;100136.88;5032362;28;20043;-91
2022/03/04 08:02:40;;;;;;;15.23;10.15;;;;;;;3.48;63.37;100132.34;5031853;28;20115;-92
2022/03/04 08:05:08;;;;;;;;;;;;;;;3.53;62.80;100144.44;5034152;28;20033;-89
2022/03/04 08:07:34;;;;;;;15.27;9.37;;;;;;;3.56;63.38;100149.56;5033162;28;19919;-91
2022/03/04 08:09:59;;;;;;;14.75;9.80;;;;;;;3.58;62.68;100150.31;5026559;28;20052;-91
2022/03/04 08:12:25;;;;;;;13.60;9.23;;;;;;;3.60;62.75;100148.44;5034029;28;20032;-93
2022/03/04 08:14:51;;;;;;;15.90;9.63;;;;;;;3.62;63.26;100142.13;5035088;28;20136;-89
2022/03/04 08:17:16;;;;;;;16.48;9.90;;;;;;;3.67;63.20;100149.78;5051051;28;20033;-92
2022/03/04 08:19:42;;;;;;;15.93;9.75;;;;;;;3.72;62.72;100140.63;5031330;28;20035;-91
2022/03/04 08:22:08;;;;;;;15.32;10.75;;;;;;;3.74;62.45;100141.41;5044210;28;20048;-89
2022/03/04 08:24:33;;;;;;;17.75;11.00;;;;;;;3.76;62.52;100149.25;5043601;28;20021;-91
2022/03/04 08:26:59;;;;;;;15.52;10.85;;;;;;;3.78;62.22;100150.00;5037220;28;20032;-90
2022/03/04 08:29:24;;;;;;;19.58;11.80;;;;;;;3.80;62.05;100153.44;5033509;28;20048;-91
2022/03/04 08:31:50;;;;;;;17.00;11.45;;;;;;;3.83;61.84;100147.97;5033548;28;20028;-92
2022/03/04 08:34:15;;;;;;;15.80;10.85;;;;;;;3.89;61.65;100157.34;5037505;28;20129;-93
2022/03/04 08:36:40;;;;;;;17.25;11.45;;;;;;;3.86;61.26;100154.88;5037152;28;20517;-90
2022/03/04 08:39:06;;;;;;;20.00;11.55;;;;;;;3.86;61.33;100147.78;5037352;28;20656;-93
2022/03/04 08:41:34;;;;;;;20.38;11.88;;;;;;;3.85;61.87;100155.81;5037063;28;20036;-90
2022/03/04 08:44:00;;;;;;;20.77;10.90;;;;;;;3.87;61.96;100153.94;5037650;28;20029;-91
2022/03/04 08:46:26;;;;;;;20.55;12.45;;;;;;;3.90;61.77;100167.81;5053843;28;20094;-93
2022/03/04 08:48:51;;;;;;;17.10;10.63;;;;;;;3.98;63.03;100157.63;5034829;28;20032;-93
2022/03/04 08:51:17;;;;;;;18.75;11.32;;;;;;;4.04;62.32;100164.34;5035395;28;20028;-91
2022/03/04 08:53:43;;;;;;;19.33;11.63;;;;;;;4.00;62.07;100166.31;5033371;28;20044;-92
2022/03/04 08:56:08;;;;;;;18.90;11.52;;;;;;;4.10;63.21;100161.34;5033773;28;20059;-92
2022/03/04 08:58:34;;;;;;;18.17;11.10;;;;;;;4.08;62.65;100176.44;5033348;28;20133;-91
2022/03/04 09:00:59;;;;;;;17.92;11.15;;;;;;;4.30;62.65;100170.75;5028415;28;20147;-92
2022/03/04 09:03:24;;;;;;;16.98;10.63;;;;;;;4.23;61.83;100172.03;5051321;28;20383;-91
2022/03/04 09:05:51;;;;;;;18.55;11.05;;;;;;;4.17;61.87;100181.19;5036290;28;20144;-92
2022/03/04 09:08:16;;;;;;;16.92;11.00;;;;;;;4.16;61.94;100183.94;5035949;28;20139;-91
2022/03/04 09:10:42;;;;;;;15.88;10.60;;;;;;;4.18;62.23;100189.97;5034580;28;20039;-92
2022/03/04 09:13:07;;;;;;;18.05;11.15;;;;;;;4.23;62.23;100185.25;5035894;28;20024;-92
2022/03/04 09:15:33;;;;;;;16.85;11.00;;;;;;;4.22;62.63;100187.06;5030112;28;20027;-90
2022/03/04 09:17:58;;;;;;;16.08;11.15;;;;;;;4.30;62.28;100182.19;5028733;28;20029;-92
2022/03/04 09:20:23;;;;;;;16.45;10.77;;;;;;;4.46;62.81;100175.94;5049101;28;20040;-92
2022/03/04 09:22:49;;;;;;;17.52;10.80;;;;;;;4.47;62.92;100173.22;5030821;28;20087;-93
2022/03/04 09:25:14;;;;;;;19.25;10.73;;;;;;;4.43;62.52;100179.63;5032000;28;20028;-92
2022/03/04 09:27:41;;;;;;;18.08;10.40;;;;;;;4.40;61.50;100187.75;5032358;28;20029;-92
2022/03/04 09:30:07;;;;;;;19.77;11.55;;;;;;;4.35;61.30;100188.03;5034108;28;20020;-91
2022/03/04 09:32:32;;;;;;;19.23;10.65;;;;;;;4.38;61.95;100184.38;5032431;28;20025;-89
2022/03/04 09:34:58;;;;;;;18.45;10.38;;;;;;;4.45;61.95;100179.53;5033364;28;20024;-91
2022/03/04 09:37:23;;;;;;;17.25;10.50;;;;;;;4.51;62.33;100180.00;5050219;28;20588;-91
2022/03/04 09:39:49;;;;;;;16.73;10.48;;;;;;;4.60;62.52;100175.94;5033540;28;20964;-91
2022/03/04 09:42:14;;;;;;;17.42;10.85;;;;;;;4.57;62.29;100178.78;5027295;28;20401;-92
2022/03/04 09:44:40;;;;;;;18.13;11.05;;;;;;;4.68;62.51;100174.53;5024014;28;20549;-92
2022/03/04 09:47:06;;;;;;;15.18;9.82;;;;;;;4.68;61.98;100176.31;5050422;28;20039;-92
2022/03/04 09:49:33;;;;;;;16.52;10.25;;;;;;;4.69;62.02;100173.56;5032672;28;20033;-91
2022/03/04 09:51:58;;;;;;;15.32;9.85;;;;;;;4.66;62.44;100179.06;5050034;28;20051;-92
2022/03/04 09:54:30;;;;;;;15.70;10.57;;;;;;;4.65;62.37;100179.16;5032517;28;20045;-91
2022/03/04 09:56:56;;;;;;;17.73;10.20;;;;;;;4.87;63.43;100178.69;5033077;28;20057;-92
2022/03/04 09:59:22;;;;;;;18.55;10.93;;;;;;;4.83;62.35;100174.53;5033333;28;20112;-92
2022/03/04 10:01:47;;;;;;;17.90;11.07;;;;;;;4.92;62.80;100180.09;5033326;28;20123;-90
2022/03/04 10:04:13;;;;;;;15.30;10.13;;;;;;;4.82;61.60;100165.75;5032722;28;20505;-93
2022/03/04 10:06:39;;;;;;;15.70;10.32;;;;;;;4.73;61.98;100177.75;5032813;28;20142;-90
2022/03/04 10:09:04;;;;;;;19.75;12.05;;;;;;;4.76;62.13;100181.16;5050019;28;20036;-93
2022/03/04 10:11:37;;;;;;;16.35;11.02;;;;;;;4.69;62.35;100172.72;5034090;28;20464;-91
2022/03/04 10:14:07;;;;;;;16.88;10.98;;;;;;;4.71;62.71;100179.63;5032940;28;20028;-91
2022/03/04 10:16:36;;;;;;;15.48;10.80;;;;;;;4.73;63.29;100180.41;5034605;28;20056;-88
2022/03/04 10:19:15;;;;;;;19.02;11.93;;;;;;;4.86;64.09;100190.25;5033490;28;20020;-92
2022/03/04 10:21:57;;;;;;;18.38;10.98;;;;;;;4.91;64.37;100169.59;5033616;28;20029;-91
2022/03/04 10:24:27;;;;;;;21.27;12.02;;;;;;;5.02;64.22;100177.72;5040111;28;20035;-92
2022/03/04 10:27:03;;;;;;;22.30;12.55;;;;;;;4.97;63.77;100170.06;5040821;28;20052;-90
2022/03/04 10:29:31;;;;;;;17.75;11.77;;;;;;;4.98;63.89;100171.75;5041339;28;20029;-92
2022/03/04 10:32:05;;;;;;;18.02;12.10;;;;;;;4.93;64.27;100165.06;5042874;28;20138;-90
2022/03/04 10:34:52;;;;;;;17.73;12.18;;;;;;;4.94;64.26;100159.66;5059351;28;20405;-91
2022/03/04 10:37:22;;;;;;;18.63;11.10;;;;;;;4.99;64.28;100162.88;5043813;28;20773;-90
2022/03/04 10:40:07;;;;;;;17.98;12.30;;;;;;;5.09;64.10;100154.31;5059042;28;20032;-91
2022/03/04 10:42:54;;;;;;;20.65;11.63;;;;;;;5.02;64.14;100162.66;5044368;28;22176;-91
2022/03/04 10:45:31;;;;;;;17.27;11.73;;;;;;;5.09;64.72;100154.31;5049613;28;20071;-88
2022/03/04 10:47:57;;;;;;;15.93;10.75;;;;;;;5.11;64.51;100147.13;5061560;28;20082;-88
2022/03/04 10:50:39;;;;;;;21.48;11.65;;;;;;;5.15;63.94;100148.63;5065054;28;20012;-87
2022/03/04 10:53:13;;;;;;;16.45;11.00;;;;;;;5.30;64.42;100150.31;5069498;28;20032;-89
2022/03/04 10:55:45;;;;;;;15.93;10.45;;;;;;;5.44;64.12;100147.59;5045569;28;20060;-88
2022/03/04 10:58:27;;;;;;;17.05;10.55;;;;;;;5.35;62.69;100142.91;5042095;28;20088;-88
2022/03/04 11:00:58;;;;;;;19.52;12.25;;;;;;;5.26;62.97;100141.72;5050699;28;20069;-87
2022/03/04 11:03:30;;;;;;;18.63;12.27;;;;;;;5.29;62.93;100145.97;5034059;28;20017;-88
2022/03/04 11:05:57;;;;;;;19.30;11.32;;;;;;;5.35;62.72;100154.38;5041204;28;20041;-90
2022/03/04 11:08:23;;;;;;;21.20;11.73;;;;;;;5.45;62.86;100144.00;5024809;28;21013;-91
2022/03/04 11:10:53;;;;;;;17.10;11.40;;;;;;;5.50;63.09;100156.97;5026358;28;20029;-90
2022/03/04 11:13:19;;;;;;;18.40;11.13;;;;;;;5.55;63.54;100154.84;5059249;28;20055;-91
2022/03/04 11:15:47;;;;;;;15.80;10.82;;;;;;;5.49;63.04;100149.94;5045350;28;20041;-89
2022/03/04 11:18:14;;;;;;;18.08;12.07;;;;;;;5.52;63.00;100149.75;5029002;28;20036;-89
2022/03/04 11:20:42;;;;;;;15.65;11.02;;;;;;;5.48;63.02;100154.41;5028382;28;20029;-92